• Join FlightAware (Why Join?)
  • Login
  • US Flag 
10:09PM EDT


 

Airport Tracker/Info


-or-


 

Live Flight TrackerFlight Track Log ✈ DLH2038 ✈ 24-Apr-2013 ✈ EDDM / MUC - EDDT / TXL

Flight Track Log - Related Links

Times and Time Zones

All times are in EDT time to prevent confusion due to time zone crossing. See the DLH2038 flight status page for this flight to view local times or setup timezone preferences in your user account.

Time Position Orientation Groundspeed Altitude Reporting Facility
EDT Latitude Longitude Course Direction KTS MPH feet Rate Location/Type
07:42AM 48.6618 11.8872 12° North  Level Estimated
07:43AM 48.7645 11.9212 12° North  Level Estimated
07:44AM 48.8671 11.9553 12° North  Level Estimated
07:45AM 48.9698 11.9895 12° North  Level Estimated
07:46AM 49.0724 12.0239 12° North  Level Estimated
07:47AM 49.1750 12.0585 12° North  Level Estimated
07:48AM 49.2776 12.0932 12° North  Level Estimated
07:49AM 49.3802 12.1280 12° North  Level Estimated
07:50AM 49.4828 12.1630 12° North  Level Estimated
07:51AM 49.5854 12.1981 13° North  Level Estimated
07:52AM 49.6880 12.2334 13° North  Level Estimated
07:53AM 49.7905 12.2688 13° North  Level Estimated
07:54AM 49.8931 12.3043 13° North  Level Estimated
07:55AM 49.9956 12.3401 13° North  Level Estimated
07:56AM 50.0982 12.3759 13° North  Level Estimated
07:57AM 50.2007 12.4120 13° North  Level Estimated
07:58AM 50.3032 12.4481 13° North  Level Estimated
07:59AM 50.4057 12.4845 13° North  Level Estimated
08:00AM 50.5081 12.5210 13° North  Level Estimated
08:01AM 50.6106 12.5576 13° North  Level Estimated
08:02AM 50.7131 12.5944 13° North  Level Estimated
08:03AM 50.8155 12.6314 13° North  Level Estimated
08:04AM 50.9180 12.6686 13° North  Level Estimated
08:05AM 51.0204 12.7059 13° North  Level Estimated
08:06AM 51.1228 12.7433 13° North  Level Estimated
08:07AM 51.2252 12.7810 13° North  Level Estimated
08:08AM 51.3276 12.8188 13° North  Level Estimated
08:09AM 51.4300 12.8567 13° North  Level Estimated
08:10AM 51.5323 12.8949 13° North  Level Estimated
08:11AM 51.6347 12.9332 13° North  Level Estimated
08:12AM 51.7370 12.9717 13° North  Level Estimated
08:13AM 51.8394 13.0103 13° North  Level Estimated
08:14AM 51.9417 13.0492 13° North  Level Estimated
08:15AM 52.0440 13.0882 13° North  Level Estimated
08:16AM 52.1463 13.1274 13° North  Level Estimated
08:17AM 52.2485 13.1668 13° North  Level Estimated
08:18AM 52.3508 13.2063 13° North  Level Estimated
08:19AM 52.4530 13.2461 13° North  Level Estimated
08:20AM 52.5553 13.2860 13° North  Level Estimated
08:21AM 52.5597 13.2877 13° North  Level Estimated
08:22AM 52.5597 13.2877 171° South  Level Estimated
08:23AM 52.5597 13.2877 171° South  Level Estimated
08:24AM 52.5597 13.2877 171° South  Level Estimated
08:25AM 52.5597 13.2877 171° South  Level Estimated
08:26AM 52.5597 13.2877 171° South  Level Estimated
08:27AM 52.5597 13.2877 171° South  Level Estimated
08:28AM 52.5597 13.2877 171° South  Level Estimated
08:29AM 52.5597 13.2877 171° South  Level Estimated
08:30AM 52.5597 13.2877 171° South  Level Estimated
08:31AM 52.5597 13.2877 171° South  Level Estimated
08:32AM 52.5597 13.2877 171° South  Level Estimated
08:33AM 52.5597 13.2877 171° South  Level Estimated